YPIY weather

Pingelly Airport
Western Australia, Australia

Public forecast

Using degrees Celsius for public forecast. Weather courtesy of forecast.io.

Closest aviation weather report (METAR) to Pingelly Airport

Closest report is Perth Jandakot Airport, 66.1 nm (122.3 km) WNW. Retrieved 2019/10/21 19:30 UTC (0 seconds ago):

YPJT 211930Z AUTO 18003KT 0700 // ////// 11/11 Q1019 RF000/0000 CLD

Closest aviation forecast (TAF) to Pingelly Airport

Forecast is more than 6 hours old.

Closest forecast is Perth Jandakot Airport, 66.1 nm (122.3 km) WNW. Retrieved 2019/10/21 12:00 UTC (7 hours ago):

TAF YPJT 211103Z 2112/2206 23010KT CAVOK FM211400 19005KT 9999 SCT012 FM212000 13005KT 9999 FEW020 FM220200 25013KT CAVOK